FZAA

Ndjili International Airport

Kinshasa, Congo, Democratic Republic of
METAR FZAA 160300Z 00000KT 6000 SCT018 23/18 Q1016 NOSIG
Observed Flight Rules
Aug-16 @ 03:00 UTC (3 hours ago) Marginal Visual Flight Rules
Visibility Clouds
6,003 meters
  • Scattered at 1,800' AGL
Temperatures Readings
Current 23°C / 73°F
Dewpoint 18°C / 64°F
Humidity 74%
Altimeter 30" Hg
Pressure 1016 hPa
Elevation 312
METAR FZAA 160300Z 00000KT 6000 SCT018 23/18 Q1016 NOSIG
Observed Flight Rules
Aug-16 @ 03:00 UTC
(3 hours ago)
MVFR
Clouds
  • Scattered at 1,800' AGL
Temperature Dewpoint
23°C / 73°F 18°C / 64°F
Humidity Altimeter Pressure
74% 30" Hg 1016 hPa